AirNav   Duncan Aviation - Near you to keep you flying
 
 583 users online  

WI07 Waupun Airport
Waupun, Wisconsin, USA

GOING TO WAUPUN?


FAA INFORMATION EFFECTIVE 26 JANUARY 2023

Location

FAA Identifier: WI07
Lat/Long: 43-37-19.9580N 088-46-00.3880W
43-37.332633N 088-46.006467W
43.6222106,-88.7667744
(estimated)
Elevation: 940 ft. / 287 m (estimated)
Variation: 01W (1985)
From city: 2 miles SW of WAUPUN, WI
Time zone: UTC -6 (UTC -5 during Daylight Saving Time)
Zip code: 53963

Airport Operations

Airport use: Private use. Permission required prior to landing
Activation date: 03/1949
Control tower: no
ARTCC: CHICAGO CENTER
FSS: GREEN BAY FLIGHT SERVICE STATION
Attendance: 0800-1700
Wind indicator: yes
Segmented circle: no

Airport Communications

WX AWOS-3 at UNU (12 nm S): 120.825 (920-386-5682)
WX ASOS at FLD (15 nm NE): 134.0 (920-922-4444)

Nearby radio navigation aids

VOR radial/distance  VOR name  Freq  Var
OSHr200/23.9OSHKOSH VORTAC116.7502E
BJBr294/(30.4)WEST BEND VOR109.8001W
BAEr323/36.9BADGER VOR/DME116.4002E
MSNr038/38.0MADISON VORTAC108.6003E

 
NDB name  Hdg/Dist  Freq  Var  ID
ROCK RIVER357/27.037101WRYV .-. -.-- ...-

Airport Services

Fuel available: A
Parking: tiedowns
Airframe service: MAJOR
Powerplant service: MAJOR
Bottled oxygen: NONE
Bulk oxygen: NONE

Runway Information

Runway 18/36

Dimensions: 3400 x 35 ft. / 1036 x 11 m
Surface: asphalt, in fair condition
RUNWAY 18  RUNWAY 36
Traffic pattern: leftleft
Markings: nonenone
Runway end identifier lights: nono
Obstructions: 45 ft. trees, 90 ft. left of centerline8 ft. trees, 90 ft. right of centerline

Runway 9/27

Dimensions: 3075 x 75 ft. / 937 x 23 m
Surface: turf, in fair condition
RUNWAY 9  RUNWAY 27
Traffic pattern: rightleft
Obstructions: 4 ft. fence, 80 ft. right of centerlineroad, 220 ft. from runway, 22:1 slope to clear
BUILDING & WIRES ON NORTH END.

Airport Ownership and Management from official FAA records

Ownership: Privately-owned
Owner: B & D LEASING LLC
PO BOX 230
WAUPUN, WI 53963
Phone 920-324-3519
Manager: DAMON REABE
DAIRYLAND AVIATION INC BOX 230
WAUPUN, WI 53963
Phone 920-324-3519

Airport Operational Statistics

Aircraft based on the field: 58
Single engine airplanes: 50
Multi engine airplanes: 1
Helicopters: 7
    
Aircraft operations: avg 70/day *
71% local general aviation
24% transient general aviation
6% air taxi
* for 12-month period ending 01 November 1984

Additional Remarks

RWY 09/27 NOT PLOWED WINTER MONTHS.
CAUTION: RWY 18/36 LAND; TKOF & TAXI ON HARD SURFACES ONLY.
FOR CD CTC CHICAGO ARTCC AT 630-906-8921.

Instrument Procedures

There are no published instrument procedures at WI07.

Some nearby airports with instrument procedures:

KUNU - Dodge County Airport (12 nm S)
KFLD - Fond Du Lac County Airport (15 nm NE)
KHXF - Hartford Municipal Airport (23 nm SE)
KOSH - Wittman Regional Airport (24 nm NE)
KRYV - Watertown Municipal Airport (27 nm S)
 
Loc | Ops | Rwys | IFR | FBO | Links
Com | Nav | Svcs | Stats | Notes
Area around WI07 (Waupun Airport)
 
Road maps at: MapQuest Bing Google
 
Aerial photo
No photo
 
Sectional chart

 
Airport distance calculator
Flying to Waupun Airport? Find the distance to fly.

From to WI07

Sunrise and sunset
Times for 27-Jan-2023
 Local
(UTC-6)
 Zulu
(UTC)
Morning civil twilight06:4712:47
Sunrise07:1813:18
Sunset16:5822:58
Evening civil twilight17:2923:29

Current date and time
Zulu (UTC)  27-Jan-2023 11:05:51
Local (UTC-6)  27-Jan-2023 05:05:51
 
METAR
KUNU 
13nm S 
271055Z AUTO 16011KT 10SM SCT120 M12/M15 A2977 RMK AO2 T11251148
KFLD 
15nm NE 
271053Z AUTO 19014KT 10SM CLR M09/M13 A2975 RMK AO2 SLP087 T10941133
KOSH 
23nm NE 
271053Z AUTO 18016KT 10SM FEW120 M11/M14 A2972 RMK AO2 SLP086 T11061139
TAF
NOTAMs
Click for the latest NOTAMs
NOTAMs are issued by the DoD/FAA and will open in a separate window not controlled by AirNav.

 

 
 

Would you like to see your business listed on this page?

 If your business provides an interesting product or service to pilots, flight crews, aircraft, or users of the Waupun Airport, you should consider listing it here.  To start the listing process, click on the button below
 
Add a business
 

Other Pages about Waupun Airport

Update a link
 
Copyright © AirNav, LLC. All rights reserved. Privacy Policy  Contact